Time;durP1;ratioP1;P1;durP2;ratioP2;P2;SDS_P1;SDS_P2;PMS_P1;PMS_P2;Temp;Humidity;BMP_temperature;BMP_pressure;BME280_temperature;BME280_humidity;BME280_pressure;Samples;Min_cycle;Max_cycle;Signal;HPM_P1;HPM_P2
2022/08/15 00:01:25;;;;;;;9.82;8.93;;;21.50;99.90;;;;;;5055664;28;20489;-67
2022/08/15 00:03:54;;;;;;;10.07;9.18;;;21.50;99.90;;;;;;5056393;28;20053;-68
2022/08/15 00:06:33;;;;;;;9.38;8.48;;;21.50;99.90;;;;;;5051063;28;20102;-67
2022/08/15 00:09:03;;;;;;;9.25;8.15;;;21.50;99.90;;;;;;5037283;28;20099;-68
2022/08/15 00:11:35;;;;;;;8.90;8.00;;;21.50;99.90;;;;;;5064660;28;20048;-67
2022/08/15 00:14:08;;;;;;;9.75;8.77;;;21.50;99.90;;;;;;5054063;28;20045;-67
2022/08/15 00:16:37;;;;;;;9.80;8.90;;;21.40;99.90;;;;;;5055448;28;20049;-67
2022/08/15 00:19:08;;;;;;;9.10;8.23;;;21.50;99.90;;;;;;5053322;28;20381;-67
2022/08/15 00:21:37;;;;;;;8.68;7.88;;;21.50;99.90;;;;;;5051294;28;20501;-67
2022/08/15 00:24:03;;;;;;;9.65;8.63;;;21.50;99.90;;;;;;5035317;28;20120;-68
2022/08/15 00:26:29;;;;;;;9.32;8.35;;;21.50;99.90;;;;;;5054725;28;20393;-67
2022/08/15 00:28:55;;;;;;;10.40;9.35;;;21.40;99.90;;;;;;5052640;28;20044;-68
2022/08/15 00:31:21;;;;;;;9.40;8.50;;;21.40;99.90;;;;;;5021455;28;20538;-68
2022/08/15 00:33:47;;;;;;;9.80;8.85;;;21.50;99.90;;;;;;5053950;28;20033;-68
2022/08/15 00:36:14;;;;;;;8.85;8.05;;;21.40;99.90;;;;;;5053615;28;20107;-67
2022/08/15 00:38:39;;;;;;;9.20;8.40;;;21.40;99.90;;;;;;5055100;28;20075;-67
2022/08/15 00:43:57;;;;;;;9.60;8.63;;;21.40;99.90;;;;;;5054329;28;20128;-67
2022/08/15 00:46:25;;;;;;;9.50;8.50;;;21.40;99.90;;;;;;5054277;28;20098;-67
2022/08/15 00:48:52;;;;;;;10.15;8.25;;;21.40;99.90;;;;;;5053203;28;20374;-67
2022/08/15 00:51:26;;;;;;;9.68;8.75;;;21.40;99.90;;;;;;5054660;28;20052;-67
2022/08/15 00:53:56;;;;;;;9.73;8.82;;;21.40;99.90;;;;;;5053471;28;20084;-67
2022/08/15 00:56:26;;;;;;;9.80;8.93;;;21.40;99.90;;;;;;5054728;28;20101;-67
2022/08/15 00:58:53;;;;;;;9.10;8.23;;;21.40;99.90;;;;;;5052584;28;20049;-68
2022/08/15 01:01:20;;;;;;;10.38;8.43;;;21.30;99.90;;;;;;5053295;28;20079;-68
2022/08/15 01:03:47;;;;;;;9.02;8.23;;;21.40;99.90;;;;;;5051659;28;20568;-67
2022/08/15 01:06:15;;;;;;;9.18;8.27;;;21.40;99.90;;;;;;5053661;28;20131;-67
2022/08/15 01:08:43;;;;;;;9.23;8.43;;;21.50;99.90;;;;;;5053589;28;20119;-67
2022/08/15 01:11:15;;;;;;;9.73;8.35;;;21.50;99.90;;;;;;5061387;28;20058;-67
2022/08/15 01:13:42;;;;;;;8.90;8.10;;;21.60;99.90;;;;;;5050700;28;20052;-68
2022/08/15 01:16:08;;;;;;;9.50;8.48;;;21.50;99.90;;;;;;5052502;28;20068;-67
2022/08/15 01:18:34;;;;;;;9.32;8.40;;;21.60;99.90;;;;;;5053047;28;20045;-68
2022/08/15 01:21:10;;;;;;;9.18;8.27;;;21.60;99.90;;;;;;5052657;28;20138;-68
2022/08/15 01:23:46;;;;;;;9.10;8.20;;;21.60;99.90;;;;;;5054809;28;20072;-67
2022/08/15 01:26:15;;;;;;;9.55;8.18;;;21.70;99.90;;;;;;5051481;28;20495;-67
2022/08/15 01:28:43;;;;;;;10.13;9.10;;;21.60;99.90;;;;;;5051703;28;20053;-68
2022/08/15 01:31:15;;;;;;;8.93;8.00;;;21.60;99.90;;;;;;5055565;28;20037;-67
2022/08/15 01:33:50;;;;;;;10.77;8.50;;;21.70;99.90;;;;;;5053454;28;20055;-67
2022/08/15 01:36:18;;;;;;;9.93;8.93;;;21.60;99.90;;;;;;5050029;28;20095;-67
2022/08/15 01:38:51;;;;;;;9.88;8.80;;;21.70;99.90;;;;;;5053531;28;20488;-68
2022/08/15 01:41:24;;;;;;;10.70;9.20;;;21.60;99.90;;;;;;5053101;28;20048;-68
2022/08/15 01:43:59;;;;;;;9.52;8.73;;;21.70;99.90;;;;;;5051223;28;20051;-68
2022/08/15 01:46:31;;;;;;;9.13;8.32;;;21.70;99.90;;;;;;5033053;28;20515;-67
2022/08/15 01:49:05;;;;;;;9.73;8.57;;;21.70;99.90;;;;;;5052541;28;20049;-67
2022/08/15 01:51:30;;;;;;;9.32;8.43;;;21.80;99.90;;;;;;5053019;28;20052;-67
2022/08/15 01:54:07;;;;;;;9.57;8.68;;;21.80;99.90;;;;;;5051701;28;20057;-68
2022/08/15 01:56:35;;;;;;;12.82;8.13;;;21.80;99.90;;;;;;5051064;28;20434;-67
2022/08/15 01:59:02;;;;;;;8.52;7.75;;;21.80;99.90;;;;;;5051576;28;20424;-67
2022/08/15 02:01:43;;;;;;;9.55;8.68;;;21.80;99.90;;;;;;5057830;28;20068;-67
2022/08/15 02:04:12;;;;;;;9.00;8.15;;;21.80;99.90;;;;;;5034528;28;20044;-68
2022/08/15 02:06:40;;;;;;;8.93;8.13;;;21.80;99.90;;;;;;5071938;28;20060;-67
2022/08/15 02:09:08;;;;;;;8.38;7.43;;;21.80;99.90;;;;;;5060586;28;20432;-68
2022/08/15 02:11:33;;;;;;;8.98;8.07;;;21.70;99.90;;;;;;5036037;28;20418;-68
2022/08/15 02:13:59;;;;;;;11.70;8.07;;;21.70;99.90;;;;;;5034430;28;20061;-68
2022/08/15 02:16:30;;;;;;;8.82;8.05;;;21.70;99.90;;;;;;5072350;28;20041;-67
2022/08/15 02:18:57;;;;;;;9.63;8.68;;;21.70;99.90;;;;;;5068922;28;20051;-67
2022/08/15 02:21:23;;;;;;;8.77;8.05;;;21.60;99.90;;;;;;5057558;28;20127;-67
2022/08/15 02:23:49;;;;;;;8.90;7.97;;;21.60;99.90;;;;;;5047762;28;20041;-67
2022/08/15 02:26:15;;;;;;;9.10;8.20;;;21.50;99.90;;;;;;5063865;28;20350;-67
2022/08/15 02:28:43;;;;;;;9.30;8.40;;;21.50;99.90;;;;;;5037397;28;20098;-67
2022/08/15 02:31:13;;;;;;;9.02;8.23;;;21.50;99.90;;;;;;5051434;28;20040;-67
2022/08/15 02:33:40;;;;;;;9.38;8.57;;;21.40;99.90;;;;;;5033351;28;20052;-67
2022/08/15 02:36:06;;;;;;;9.65;8.45;;;21.40;99.90;;;;;;5046349;28;20051;-68
2022/08/15 02:38:31;;;;;;;9.05;8.23;;;21.40;99.90;;;;;;5073536;28;20045;-67
2022/08/15 02:40:58;;;;;;;9.60;8.80;;;21.30;99.90;;;;;;5056214;28;20090;-67
2022/08/15 02:43:24;;;;;;;9.50;8.55;;;21.30;99.90;;;;;;5063093;28;20041;-67
2022/08/15 02:45:50;;;;;;;10.45;8.98;;;21.20;99.90;;;;;;5071776;28;20036;-67
2022/08/15 02:48:15;;;;;;;9.85;8.77;;;21.20;99.90;;;;;;5056035;28;20029;-67
2022/08/15 02:50:42;;;;;;;9.63;8.65;;;21.10;99.90;;;;;;5052200;28;20499;-67
2022/08/15 02:53:11;;;;;;;10.00;9.05;;;21.00;99.90;;;;;;5049414;28;20094;-67
2022/08/15 02:55:37;;;;;;;9.63;8.82;;;21.00;99.90;;;;;;5059517;28;20481;-67
2022/08/15 02:58:04;;;;;;;9.48;8.63;;;20.90;99.90;;;;;;5033669;28;20132;-67
2022/08/15 03:00:54;;;;;;;9.65;8.85;;;20.80;99.90;;;;;;5047441;28;20076;-67
2022/08/15 03:03:19;;;;;;;11.23;8.50;;;20.80;99.90;;;;;;5048860;28;20044;-67
2022/08/15 03:05:48;;;;;;;9.63;8.73;;;20.70;99.90;;;;;;5050520;28;20094;-67
2022/08/15 03:08:14;;;;;;;9.13;8.32;;;20.70;99.90;;;;;;5028807;28;20129;-68
2022/08/15 03:10:41;;;;;;;8.55;7.75;;;20.60;99.90;;;;;;5048474;28;20119;-67
2022/08/15 03:13:11;;;;;;;8.32;7.63;;;20.50;99.90;;;;;;5051082;28;20045;-68
2022/08/15 03:15:52;;;;;;;9.45;8.55;;;20.50;99.90;;;;;;5050822;28;20416;-68
2022/08/15 03:18:24;;;;;;;9.48;8.57;;;20.50;99.90;;;;;;5039090;28;20045;-67
2022/08/15 03:20:53;;;;;;;10.77;8.77;;;20.40;99.90;;;;;;5039430;28;20060;-67
2022/08/15 03:23:20;;;;;;;9.65;8.68;;;20.40;99.90;;;;;;5046041;28;20466;-67
2022/08/15 03:26:16;;;;;;;9.45;8.55;;;20.40;99.90;;;;;;5051014;28;20088;-67
2022/08/15 03:28:45;;;;;;;10.18;9.05;;;20.30;99.90;;;;;;5038752;28;20080;-67
2022/08/15 03:31:13;;;;;;;15.05;8.93;;;20.20;99.90;;;;;;5051912;28;20113;-67
2022/08/15 03:33:42;;;;;;;9.85;9.05;;;20.20;99.90;;;;;;5052086;28;20469;-67
2022/08/15 03:36:08;;;;;;;11.32;9.32;;;20.20;99.90;;;;;;5050743;28;20485;-67
2022/08/15 03:38:34;;;;;;;9.70;8.82;;;20.20;99.90;;;;;;5053436;28;20330;-67
2022/08/15 03:41:00;;;;;;;10.23;9.23;;;20.20;99.90;;;;;;5052615;28;20457;-67
2022/08/15 03:43:29;;;;;;;9.48;8.50;;;20.00;99.90;;;;;;5022033;28;20484;-67
2022/08/15 03:46:04;;;;;;;10.93;9.82;;;20.10;99.90;;;;;;5034863;28;20072;-67
2022/08/15 03:48:35;;;;;;;13.63;9.70;;;20.10;99.90;;;;;;5054250;28;20503;-68
2022/08/15 03:53:57;;;;;;;10.90;9.82;;;20.10;99.90;;;;;;5046433;28;20076;-68
2022/08/15 03:56:26;;;;;;;11.98;9.65;;;19.90;99.90;;;;;;5035665;28;20095;-68
2022/08/15 03:58:55;;;;;;;11.40;10.20;;;20.00;99.90;;;;;;5052588;28;20060;-68
2022/08/15 04:01:24;;;;;;;10.07;9.18;;;20.00;99.90;;;;;;5043723;28;20056;-68
2022/08/15 04:03:51;;;;;;;10.73;9.65;;;19.90;99.90;;;;;;5024026;28;20086;-68
2022/08/15 04:06:23;;;;;;;10.10;9.18;;;19.90;99.90;;;;;;5033820;28;20086;-68
2022/08/15 04:08:50;;;;;;;;;;;19.90;99.90;;;;;;5018989;28;20052;-68
2022/08/15 04:14:39;;;;;;;10.75;9.65;;;19.90;99.90;;;;;;4992342;28;20089;-69
2022/08/15 04:17:05;;;;;;;10.32;9.32;;;19.80;99.90;;;;;;5053046;28;20363;-67
2022/08/15 04:19:31;;;;;;;12.93;9.52;;;19.70;99.90;;;;;;5033687;28;20037;-67
2022/08/15 04:22:03;;;;;;;10.32;9.32;;;19.80;99.90;;;;;;5031523;28;20062;-67
2022/08/15 04:24:28;;;;;;;9.82;8.82;;;19.80;99.90;;;;;;5054871;28;20041;-67
2022/08/15 04:26:54;;;;;;;9.60;8.70;;;19.80;99.90;;;;;;5035089;28;20166;-67
2022/08/15 04:29:20;;;;;;;10.38;9.38;;;19.90;99.90;;;;;;5054206;28;20041;-67
2022/08/15 04:31:45;;;;;;;10.35;8.60;;;19.90;99.90;;;;;;5030998;28;20497;-67
2022/08/15 04:34:11;;;;;;;9.75;8.43;;;19.90;99.90;;;;;;5049417;28;20037;-67
2022/08/15 04:36:36;;;;;;;10.98;9.10;;;19.90;99.90;;;;;;5049007;28;20485;-67
2022/08/15 04:39:02;;;;;;;10.30;9.35;;;19.90;99.90;;;;;;5035209;28;20381;-67
2022/08/15 04:41:30;;;;;;;10.55;9.55;;;20.10;99.90;;;;;;5050850;28;20385;-67
2022/08/15 04:43:55;;;;;;;10.68;9.60;;;20.10;99.90;;;;;;5055563;28;20053;-67
2022/08/15 04:46:21;;;;;;;12.18;10.05;;;20.20;99.90;;;;;;5052632;28;20048;-67
2022/08/15 04:48:46;;;;;;;10.70;9.68;;;20.20;99.90;;;;;;5052017;28;20055;-67
2022/08/15 04:51:12;;;;;;;11.15;10.15;;;20.20;99.90;;;;;;5024058;28;20057;-67
2022/08/15 04:53:39;;;;;;;10.70;9.70;;;20.30;99.90;;;;;;5051036;28;20056;-67
2022/08/15 04:56:06;;;;;;;11.07;9.98;;;20.30;99.90;;;;;;5051152;28;20063;-67
2022/08/15 04:58:32;;;;;;;10.75;9.70;;;20.30;99.90;;;;;;5033167;28;20051;-68
2022/08/15 05:01:02;;;;;;;10.90;9.90;;;20.30;99.90;;;;;;5048160;28;20037;-68
2022/08/15 05:03:28;;;;;;;10.88;9.75;;;20.30;99.90;;;;;;5029344;28;20103;-67
2022/08/15 05:06:01;;;;;;;11.30;10.18;;;20.40;99.90;;;;;;5043924;28;20040;-67
2022/08/15 05:08:30;;;;;;;11.45;10.27;;;20.40;99.90;;;;;;5019517;28;20088;-68
2022/08/15 05:11:00;;;;;;;10.95;9.85;;;20.40;99.90;;;;;;5029744;28;20053;-68
2022/08/15 05:13:29;;;;;;;13.55;10.23;;;20.40;99.90;;;;;;5032534;28;20068;-68
2022/08/15 05:15:57;;;;;;;11.10;10.10;;;20.40;99.90;;;;;;5026228;28;20049;-68
2022/08/15 05:18:24;;;;;;;10.70;9.70;;;20.40;99.90;;;;;;5028021;28;20102;-67
2022/08/15 05:20:51;;;;;;;13.57;9.85;;;20.50;99.90;;;;;;5036981;28;20052;-68
2022/08/15 05:23:18;;;;;;;11.20;10.02;;;20.50;99.90;;;;;;5033916;28;20041;-67
2022/08/15 05:25:49;;;;;;;10.82;9.70;;;20.60;99.90;;;;;;5033935;28;20462;-67
2022/08/15 05:28:15;;;;;;;16.35;9.50;;;20.60;99.90;;;;;;5036738;28;20030;-67
2022/08/15 05:30:40;;;;;;;10.43;9.45;;;20.70;99.90;;;;;;5033932;28;20057;-67
2022/08/15 05:33:16;;;;;;;10.30;9.30;;;20.70;99.90;;;;;;5034415;28;20038;-67
2022/08/15 05:35:44;;;;;;;11.32;10.27;;;20.80;99.90;;;;;;5031842;28;20053;-67
2022/08/15 05:38:22;;;;;;;10.50;9.43;;;21.00;99.90;;;;;;5039123;28;20036;-67
2022/08/15 05:40:56;;;;;;;13.07;9.13;;;21.10;99.90;;;;;;5052504;28;20049;-67
2022/08/15 05:43:28;;;;;;;10.95;9.95;;;21.10;99.90;;;;;;5033908;28;20077;-67
2022/08/15 05:46:22;;;;;;;10.25;9.20;;;21.30;99.90;;;;;;5040134;28;20504;-67
2022/08/15 05:49:00;;;;;;;10.52;9.52;;;21.40;99.90;;;;;;5014447;28;20068;-67
2022/08/15 05:51:37;;;;;;;10.52;9.07;;;21.60;99.90;;;;;;5013929;28;20049;-67
2022/08/15 05:54:24;;;;;;;10.68;9.65;;;21.70;99.90;;;;;;5043417;28;20412;-67
2022/08/15 05:57:09;;;;;;;11.82;9.85;;;21.80;99.90;;;;;;5051145;28;20052;-67
2022/08/15 05:59:43;;;;;;;9.57;8.70;;;21.90;99.90;;;;;;5058380;28;20071;-68
2022/08/15 06:02:25;;;;;;;12.35;9.65;;;22.00;99.90;;;;;;5073291;28;20055;-67
2022/08/15 06:05:03;;;;;;;11.35;10.20;;;22.00;99.90;;;;;;5054846;28;20052;-68
2022/08/15 06:07:30;;;;;;;10.43;9.40;;;21.90;99.90;;;;;;5053304;28;20389;-68
2022/08/15 06:10:04;;;;;;;9.98;8.98;;;22.00;99.90;;;;;;5045844;28;20045;-67
2022/08/15 06:12:34;;;;;;;11.45;9.77;;;22.00;99.90;;;;;;5037039;28;20076;-67
2022/08/15 06:15:11;;;;;;;10.50;9.45;;;22.10;99.90;;;;;;5047846;28;20101;-66
2022/08/15 06:17:43;;;;;;;10.15;9.25;;;22.10;99.90;;;;;;5049654;28;20052;-67
2022/08/15 06:20:13;;;;;;;10.68;9.65;;;22.10;99.90;;;;;;5022371;28;20041;-67
2022/08/15 06:23:05;;;;;;;10.40;9.40;;;22.20;99.90;;;;;;5045289;28;20068;-67
2022/08/15 06:30:01;;;;;;;10.00;9.00;;;22.20;99.90;;;;;;5042605;28;20107;-66
2022/08/15 06:32:26;;;;;;;10.65;9.60;;;22.20;99.90;;;;;;5008372;28;20182;-67
2022/08/15 06:38:45;;;;;;;11.23;10.05;;;22.20;99.90;;;;;;5049698;28;20098;-69
2022/08/15 06:41:22;;;;;;;11.23;10.15;;;22.30;99.90;;;;;;5061426;28;20052;-66
2022/08/15 06:43:49;;;;;;;10.35;9.07;;;22.30;99.90;;;;;;5069313;28;20043;-67
2022/08/15 06:46:15;;;;;;;10.57;9.68;;;22.40;99.90;;;;;;5058879;28;20041;-67
2022/08/15 06:48:42;;;;;;;11.45;10.23;;;22.50;99.90;;;;;;5046360;28;20037;-67
2022/08/15 06:51:10;;;;;;;11.02;10.02;;;22.50;99.90;;;;;;5034362;28;20045;-66
2022/08/15 06:58:00;;;;;;;12.10;10.80;;;22.90;99.90;;;;;;5052523;28;20385;-67
2022/08/15 07:00:45;;;;;;;11.98;10.80;;;23.20;99.90;;;;;;5046453;28;20073;-67
2022/08/15 07:03:38;;;;;;;11.20;10.20;;;23.40;99.90;;;;;;5022735;28;20461;-67
2022/08/15 07:06:04;;;;;;;10.98;9.88;;;23.60;99.90;;;;;;5038102;28;20056;-67
2022/08/15 07:08:38;;;;;;;11.52;10.43;;;23.70;99.90;;;;;;5016082;28;20045;-67
2022/08/15 07:11:27;;;;;;;11.65;10.45;;;23.90;99.90;;;;;;5037036;28;20045;-67
2022/08/15 07:14:09;;;;;;;11.65;10.52;;;23.90;99.90;;;;;;5031086;28;20418;-66
2022/08/15 07:16:42;;;;;;;;;;;24.30;99.90;;;;;;5032856;28;20049;-67
2022/08/15 07:19:10;;;;;;;13.40;10.07;;;24.40;99.90;;;;;;5032796;28;19924;-67
2022/08/15 07:21:35;;;;;;;11.18;9.98;;;24.30;99.90;;;;;;5032099;28;20053;-65
2022/08/15 07:24:11;;;;;;;11.88;10.70;;;24.40;99.90;;;;;;5033003;28;20038;-66
2022/08/15 07:26:52;;;;;;;10.88;9.85;;;24.50;99.90;;;;;;5032187;28;20053;-66
2022/08/15 07:29:24;;;;;;;11.15;10.15;;;24.50;99.90;;;;;;5032831;28;20084;-66
2022/08/15 07:31:58;;;;;;;11.45;10.43;;;24.50;99.90;;;;;;5032217;28;20069;-66
2022/08/15 07:34:24;;;;;;;12.80;10.40;;;24.50;99.90;;;;;;5015077;28;20135;-66
2022/08/15 07:37:04;;;;;;;11.35;10.25;;;24.50;99.90;;;;;;5032040;28;20456;-66
2022/08/15 07:39:40;;;;;;;10.95;9.82;;;24.40;99.90;;;;;;5012990;28;20201;-66
2022/08/15 07:42:19;;;;;;;11.50;10.30;;;24.50;99.90;;;;;;5012643;28;20038;-66
2022/08/15 07:44:54;;;;;;;12.07;10.35;;;24.60;99.90;;;;;;5013390;28;20057;-66
2022/08/15 07:47:28;;;;;;;11.82;10.10;;;24.60;99.90;;;;;;5012318;28;20046;-66
2022/08/15 07:50:28;;;;;;;11.73;10.57;;;24.60;99.90;;;;;;5013318;28;20065;-67
2022/08/15 07:53:12;;;;;;;12.20;10.95;;;24.70;99.90;;;;;;5032988;28;20045;-66
2022/08/15 07:55:39;;;;;;;11.48;10.38;;;24.70;99.90;;;;;;5014075;28;20488;-67
2022/08/15 07:58:25;;;;;;;11.25;10.15;;;24.80;99.90;;;;;;5030387;28;20390;-66
2022/08/15 08:01:09;;;;;;;11.73;10.60;;;24.80;99.90;;;;;;5026721;28;20060;-67
2022/08/15 08:03:37;;;;;;;11.82;10.52;;;24.90;99.90;;;;;;5012717;28;20037;-66
2022/08/15 08:06:22;;;;;;;10.95;10.02;;;24.90;99.90;;;;;;5026625;28;20152;-66
2022/08/15 08:09:02;;;;;;;12.50;11.30;;;24.90;99.90;;;;;;5014814;28;20418;-67
2022/08/15 08:11:54;;;;;;;11.88;10.75;;;24.90;99.90;;;;;;5029242;28;20060;-66
2022/08/15 08:15:01;;;;;;;11.43;10.32;;;24.90;99.90;;;;;;5038039;28;20094;-67
2022/08/15 08:17:37;;;;;;;11.55;10.45;;;25.00;99.90;;;;;;5025628;28;20119;-66
2022/08/15 08:20:08;;;;;;;11.38;10.20;;;24.90;99.90;;;;;;5035473;28;20045;-66
2022/08/15 08:23:01;;;;;;;12.02;10.77;;;25.00;99.90;;;;;;5010717;28;20049;-66
2022/08/15 08:25:37;;;;;;;11.07;9.98;;;25.10;99.90;;;;;;5035111;28;20047;-66
2022/08/15 08:28:27;;;;;;;12.45;10.27;;;25.20;99.90;;;;;;5029478;28;20107;-66
2022/08/15 08:31:11;;;;;;;11.98;10.45;;;25.40;99.90;;;;;;5023137;28;20045;-66
2022/08/15 08:34:15;;;;;;;11.63;10.45;;;25.50;99.90;;;;;;5032618;28;20443;-66
2022/08/15 08:36:58;;;;;;;11.75;10.65;;;25.80;99.90;;;;;;5037034;28;20060;-66
2022/08/15 08:39:48;;;;;;;12.23;10.93;;;26.00;99.90;;;;;;5017507;28;20057;-66
2022/08/15 08:42:35;;;;;;;11.27;10.20;;;26.20;99.90;;;;;;5035222;28;20072;-66
2022/08/15 08:45:15;;;;;;;12.75;11.45;;;26.40;99.90;;;;;;5031016;28;20103;-66
2022/08/15 08:48:26;;;;;;;13.05;10.73;;;26.50;99.90;;;;;;5055526;28;20048;-66
2022/08/15 08:51:25;;;;;;;11.77;10.32;;;26.50;99.90;;;;;;4986600;28;20054;-66
2022/08/15 08:54:01;;;;;;;11.23;10.02;;;26.30;99.90;;;;;;5036969;28;20036;-66
2022/08/15 08:56:38;;;;;;;11.10;10.00;;;26.30;99.90;;;;;;5044707;28;20037;-66
2022/08/15 08:59:26;;;;;;;12.20;10.70;;;26.30;99.90;;;;;;5033259;28;20477;-66
2022/08/15 09:01:58;;;;;;;11.00;10.10;;;26.40;99.90;;;;;;5033304;28;20037;-66
2022/08/15 09:04:37;;;;;;;12.27;10.85;;;26.40;99.90;;;;;;5015861;28;20478;-66
2022/08/15 09:07:05;;;;;;;33.80;17.52;;;26.50;99.90;;;;;;5051395;28;20048;-67
2022/08/15 09:09:35;;;;;;;12.60;11.30;;;26.60;99.90;;;;;;5055001;28;20096;-66
2022/08/15 09:14:52;;;;;;;10.30;9.20;;;26.80;99.90;;;;;;5032828;28;20191;-66
2022/08/15 09:17:19;;;;;;;10.45;9.50;;;27.10;99.90;;;;;;5016603;28;20500;-66
2022/08/15 09:20:05;;;;;;;10.57;9.50;;;27.30;98.60;;;;;;5025392;28;20095;-66
2022/08/15 09:22:31;;;;;;;15.68;10.63;;;27.50;97.90;;;;;;5030181;28;20135;-66
2022/08/15 09:24:56;;;;;;;11.07;9.82;;;27.60;97.40;;;;;;5029924;28;20152;-66
2022/08/15 09:28:11;;;;;;;12.27;10.75;;;27.70;97.70;;;;;;5030815;28;20069;-66
2022/08/15 09:30:39;;;;;;;13.13;10.35;;;27.60;96.20;;;;;;4961148;28;20065;-66
2022/08/15 09:33:13;;;;;;;11.60;10.60;;;27.40;97.70;;;;;;5034165;28;20037;-66
2022/08/15 09:35:52;;;;;;;13.27;11.98;;;27.40;98.50;;;;;;5051550;28;20478;-66
2022/08/15 09:38:47;;;;;;;12.68;11.43;;;27.30;99.00;;;;;;5036263;28;20048;-66
2022/08/15 09:41:43;;;;;;;12.15;10.95;;;27.10;99.20;;;;;;5030144;28;20057;-66
2022/08/15 09:44:25;;;;;;;14.25;12.93;;;27.10;99.90;;;;;;5028431;28;20502;-66
2022/08/15 09:47:05;;;;;;;13.70;11.75;;;27.00;99.90;;;;;;5027159;28;20478;-65
2022/08/15 09:49:49;;;;;;;15.98;11.57;;;26.90;99.90;;;;;;5001177;28;20097;-66
2022/08/15 09:52:36;;;;;;;12.93;11.60;;;26.90;99.90;;;;;;4995726;28;20052;-66
2022/08/15 09:55:25;;;;;;;14.60;12.60;;;26.90;99.90;;;;;;5020718;28;20045;-65
2022/08/15 09:57:53;;;;;;;14.98;13.48;;;26.80;99.90;;;;;;5027481;28;20045;-65
2022/08/15 10:00:30;;;;;;;17.25;14.23;;;26.70;99.90;;;;;;5026910;28;20076;-65
2022/08/15 10:03:05;;;;;;;16.55;14.88;;;26.60;99.90;;;;;;5031726;28;20045;-65
2022/08/15 10:06:02;;;;;;;15.82;14.32;;;26.60;99.90;;;;;;5028680;28;20096;-65
2022/08/15 10:08:50;;;;;;;16.73;13.57;;;26.50;99.90;;;;;;5022222;28;20049;-65
2022/08/15 10:11:16;;;;;;;15.77;14.18;;;26.40;99.90;;;;;;5026857;28;20087;-64
2022/08/15 10:13:42;;;;;;;16.58;14.98;;;26.40;99.90;;;;;;5024321;28;20057;-66
2022/08/15 10:16:41;;;;;;;15.60;14.05;;;26.40;99.90;;;;;;5028750;28;20049;-65
2022/08/15 10:19:09;;;;;;;15.13;13.52;;;26.40;99.90;;;;;;5032577;28;20200;-65
2022/08/15 10:21:41;;;;;;;17.63;15.90;;;26.40;99.90;;;;;;5021174;28;20078;-65
2022/08/15 10:24:34;;;;;;;15.35;13.75;;;26.50;99.90;;;;;;5053848;28;20056;-65
2022/08/15 10:27:20;;;;;;;16.30;14.65;;;26.40;99.90;;;;;;5019495;28;20161;-65
2022/08/15 10:29:48;;;;;;;15.82;14.18;;;26.30;99.90;;;;;;5032420;28;20124;-65
2022/08/15 10:32:29;;;;;;;16.75;15.05;;;26.20;99.90;;;;;;5044991;28;20041;-65
2022/08/15 10:34:58;;;;;;;15.77;14.27;;;26.10;99.90;;;;;;4998672;28;20061;-65
2022/08/15 10:37:29;;;;;;;15.85;14.25;;;26.00;99.90;;;;;;5013242;28;20458;-65
2022/08/15 10:40:06;;;;;;;15.20;13.57;;;25.90;99.90;;;;;;5016303;28;20040;-65
2022/08/15 10:43:14;;;;;;;16.45;14.57;;;25.80;99.90;;;;;;5043792;28;20067;-65
2022/08/15 10:46:17;;;;;;;16.48;14.77;;;25.70;99.90;;;;;;4980326;28;20109;-65
2022/08/15 10:49:10;;;;;;;17.55;15.50;;;25.60;99.90;;;;;;5052690;28;20491;-66
2022/08/15 10:52:01;;;;;;;16.40;14.73;;;25.60;99.90;;;;;;5033829;28;20057;-66
2022/08/15 10:54:36;;;;;;;19.00;17.05;;;25.70;99.90;;;;;;5022309;28;20037;-66
2022/08/15 10:57:06;;;;;;;17.23;15.43;;;25.70;99.90;;;;;;5026500;28;20040;-66
2022/08/15 10:59:43;;;;;;;19.00;16.40;;;25.70;99.90;;;;;;5015022;28;20545;-65
2022/08/15 11:02:35;;;;;;;18.25;16.27;;;25.90;99.90;;;;;;5045168;28;20083;-66
2022/08/15 11:05:07;;;;;;;16.65;15.05;;;26.00;99.90;;;;;;5051891;28;20056;-66
2022/08/15 11:07:34;;;;;;;;;;;26.20;99.90;;;;;;5052232;28;20048;-66
2022/08/15 11:10:03;;;;;;;22.23;17.52;;;26.30;99.90;;;;;;5034577;28;20003;-66
2022/08/15 11:12:32;;;;;;;18.83;16.90;;;26.40;99.90;;;;;;5052102;28;20516;-66
2022/08/15 11:15:00;;;;;;;18.90;16.48;;;26.40;99.90;;;;;;5050251;28;20041;-66
2022/08/15 11:17:30;;;;;;;19.65;17.63;;;26.50;99.90;;;;;;5052422;28;20092;-66
2022/08/15 11:20:12;;;;;;;19.83;18.02;;;26.50;99.90;;;;;;5052672;28;20098;-66
2022/08/15 11:22:49;;;;;;;16.88;15.27;;;26.40;99.90;;;;;;5051682;28;20041;-66
2022/08/15 11:25:19;;;;;;;18.60;16.73;;;26.40;99.90;;;;;;5052570;28;20052;-66
2022/08/15 11:28:10;;;;;;;20.63;18.73;;;26.50;99.90;;;;;;5034410;28;20087;-66
2022/08/15 11:30:39;;;;;;;19.97;18.03;;;26.40;99.90;;;;;;5050791;28;20049;-66
2022/08/15 11:33:21;;;;;;;20.55;18.05;;;26.40;99.90;;;;;;5051626;28;20295;-66
2022/08/15 11:35:48;;;;;;;19.50;17.40;;;26.50;99.90;;;;;;5051945;28;20049;-66
2022/08/15 11:38:16;;;;;;;19.23;17.38;;;26.60;99.90;;;;;;5051043;28;20052;-66
2022/08/15 11:40:48;;;;;;;20.05;18.10;;;26.60;99.90;;;;;;5052234;28;20060;-66
2022/08/15 11:43:16;;;;;;;19.20;17.20;;;26.70;99.90;;;;;;5017815;28;20045;-66
2022/08/15 11:45:48;;;;;;;19.10;17.00;;;26.90;99.90;;;;;;5052326;28;20095;-66
2022/08/15 11:48:28;;;;;;;18.13;16.33;;;27.00;99.90;;;;;;5036053;28;20049;-66
2022/08/15 11:51:02;;;;;;;18.52;15.20;;;27.30;99.90;;;;;;5052063;28;20418;-66
2022/08/15 11:53:35;;;;;;;19.08;17.13;;;27.50;99.90;;;;;;5056047;28;20041;-67
2022/08/15 11:56:01;;;;;;;46.25;17.35;;;27.70;99.90;;;;;;5038111;28;20059;-67
2022/08/15 11:58:34;;;;;;;13.38;12.02;;;27.80;99.90;;;;;;5038277;28;20045;-66
2022/08/15 12:01:19;;;;;;;13.43;12.02;;;28.10;99.90;;;;;;5018270;28;20057;-66
2022/08/15 12:03:58;;;;;;;14.75;13.32;;;28.30;99.90;;;;;;5029691;28;20041;-65
2022/08/15 12:06:27;;;;;;;29.10;13.30;;;28.60;99.90;;;;;;5046083;28;20441;-66
2022/08/15 12:08:53;;;;;;;15.55;12.90;;;28.80;99.90;;;;;;5016907;28;20058;-66
2022/08/15 12:11:23;;;;;;;17.67;16.08;;;29.10;99.90;;;;;;5028828;28;20049;-66
2022/08/15 12:13:56;;;;;;;15.20;13.70;;;29.20;99.30;;;;;;5036594;28;20123;-66
2022/08/15 12:16:39;;;;;;;17.80;16.00;;;29.30;99.90;;;;;;5031302;28;20045;-66
2022/08/15 12:19:47;;;;;;;16.50;14.77;;;29.30;97.00;;;;;;5029716;28;20040;-66
2022/08/15 12:22:45;;;;;;;13.95;12.65;;;29.20;98.10;;;;;;5017692;28;20037;-66
2022/08/15 12:25:11;;;;;;;13.95;12.45;;;29.10;97.50;;;;;;4962336;28;20049;-66
2022/08/15 12:27:37;;;;;;;13.15;11.52;;;28.80;97.20;;;;;;5030967;28;20103;-67
2022/08/15 12:30:08;;;;;;;11.43;10.32;;;28.80;97.80;;;;;;5028740;28;20386;-67
2022/08/15 12:32:35;;;;;;;13.15;11.90;;;28.80;98.20;;;;;;5030615;28;20080;-67
2022/08/15 12:35:03;;;;;;;14.90;13.45;;;28.80;97.90;;;;;;5024961;28;20500;-67
2022/08/15 12:37:29;;;;;;;14.35;12.90;;;28.60;98.30;;;;;;5011027;28;20049;-67
2022/08/15 12:39:57;;;;;;;15.75;14.25;;;28.50;99.20;;;;;;4993869;28;20046;-67
2022/08/15 12:42:24;;;;;;;13.95;12.73;;;28.50;99.90;;;;;;5034584;28;20434;-67
2022/08/15 12:44:53;;;;;;;13.90;12.40;;;28.40;99.90;;;;;;5050153;28;20048;-67
2022/08/15 12:47:20;;;;;;;14.90;13.35;;;28.40;99.90;;;;;;5044418;28;20087;-67
2022/08/15 12:49:46;;;;;;;15.10;12.88;;;28.30;99.90;;;;;;4989974;28;20050;-67
2022/08/15 12:52:12;;;;;;;14.07;12.68;;;28.30;99.90;;;;;;5028071;28;20393;-67
2022/08/15 12:54:38;;;;;;;11.68;10.57;;;28.10;99.90;;;;;;5035598;28;20402;-67
2022/08/15 12:57:04;;;;;;;15.30;11.52;;;28.10;99.90;;;;;;5017489;28;20056;-67
2022/08/15 12:59:31;;;;;;;12.20;11.00;;;28.00;99.90;;;;;;5042151;28;20044;-66
2022/08/15 13:01:57;;;;;;;11.88;10.18;;;28.00;99.90;;;;;;5054925;28;20049;-66
2022/08/15 13:04:24;;;;;;;11.23;9.90;;;27.90;99.90;;;;;;5054670;28;20055;-66
2022/08/15 13:06:56;;;;;;;9.70;8.65;;;27.80;99.90;;;;;;5053676;28;20120;-66
2022/08/15 13:09:24;;;;;;;11.88;8.32;;;27.70;99.90;;;;;;5053689;28;20047;-66
2022/08/15 13:11:50;;;;;;;9.30;8.38;;;27.60;99.90;;;;;;5052332;28;20056;-66
2022/08/15 13:14:18;;;;;;;9.13;8.20;;;27.60;99.90;;;;;;5054339;28;20048;-66
2022/08/15 13:16:46;;;;;;;11.35;10.25;;;27.60;99.90;;;;;;5053641;28;20041;-66
2022/08/15 13:19:25;;;;;;;12.27;11.00;;;27.50;99.90;;;;;;5055132;28;20041;-66
2022/08/15 13:24:37;;;;;;;10.88;9.27;;;27.20;99.90;;;;;;5054654;28;20393;-66
2022/08/15 13:27:04;;;;;;;10.23;9.18;;;27.20;99.90;;;;;;5054385;28;20041;-66
2022/08/15 13:29:31;;;;;;;10.65;8.93;;;27.10;99.90;;;;;;5054159;28;20033;-66
2022/08/15 13:31:57;;;;;;;9.18;8.15;;;27.10;99.90;;;;;;5053162;28;20495;-67
2022/08/15 13:34:24;;;;;;;11.45;10.27;;;27.20;99.90;;;;;;5053742;28;20041;-66